createdAt,value
2022-10-17T00:00:13.733Z,11.15
2022-10-17T00:02:40.845Z,10.13
2022-10-17T00:05:08.087Z,10.47
2022-10-17T00:07:35.244Z,11.43
2022-10-17T00:10:02.370Z,10.27
2022-10-17T00:12:29.554Z,10.45
2022-10-17T00:14:56.724Z,10.38
2022-10-17T00:17:26.275Z,12.37
2022-10-17T00:19:53.659Z,11.23
2022-10-17T00:22:20.968Z,11.43
2022-10-17T00:24:48.102Z,10.75
2022-10-17T00:27:15.224Z,10.77
2022-10-17T00:29:42.334Z,9.80
2022-10-17T00:32:09.501Z,10.93
2022-10-17T00:34:36.610Z,11.95
2022-10-17T00:37:03.755Z,12.45
2022-10-17T00:39:30.950Z,12.10
2022-10-17T00:41:58.058Z,11.87
2022-10-17T00:44:32.016Z,12.43
2022-10-17T00:47:00.664Z,11.88
2022-10-17T00:49:31.526Z,12.43
2022-10-17T00:52:00.762Z,11.77
2022-10-17T00:54:31.044Z,15.33
2022-10-17T00:56:59.049Z,11.80
2022-10-17T00:59:26.914Z,12.98
2022-10-17T01:02:09.426Z,12.48
2022-10-17T01:04:38.059Z,11.43
2022-10-17T01:07:05.773Z,11.70
2022-10-17T01:09:33.410Z,13.70
2022-10-17T01:12:06.667Z,12.63
2022-10-17T01:14:43.122Z,11.55
2022-10-17T01:17:22.574Z,13.32
2022-10-17T01:19:49.777Z,13.07
2022-10-17T01:22:41.797Z,12.88
2022-10-17T01:25:28.715Z,12.05
2022-10-17T01:28:16.884Z,12.00
2022-10-17T01:30:59.756Z,12.82
2022-10-17T01:33:46.892Z,11.67
2022-10-17T01:36:14.025Z,13.40
2022-10-17T01:38:52.671Z,13.93
2022-10-17T01:41:31.812Z,13.15
2022-10-17T01:44:11.472Z,14.73
2022-10-17T01:46:39.811Z,13.03
2022-10-17T01:49:08.628Z,12.23
2022-10-17T01:51:41.789Z,13.38
2022-10-17T01:54:13.251Z,13.43
2022-10-17T01:56:42.063Z,14.10
2022-10-17T01:59:14.977Z,13.27
2022-10-17T02:01:43.950Z,13.60
2022-10-17T02:04:12.463Z,14.77
2022-10-17T02:06:40.793Z,16.15
2022-10-17T02:09:17.538Z,12.70
2022-10-17T02:11:46.975Z,18.30
2022-10-17T02:14:33.630Z,14.05
2022-10-17T02:17:00.711Z,18.23
2022-10-17T02:19:40.160Z,14.63
2022-10-17T02:22:17.507Z,14.73
2022-10-17T02:24:53.064Z,15.47
2022-10-17T02:27:29.914Z,14.93
2022-10-17T02:30:12.755Z,13.52
2022-10-17T02:32:40.600Z,15.20
2022-10-17T02:35:13.028Z,15.38
2022-10-17T02:37:41.663Z,17.37
2022-10-17T02:40:09.561Z,15.45
2022-10-17T02:42:37.137Z,14.55
2022-10-17T02:45:05.807Z,16.70
2022-10-17T02:47:33.225Z,15.38
2022-10-17T02:50:00.385Z,15.07
2022-10-17T02:52:39.902Z,14.20
2022-10-17T02:55:17.283Z,15.60
2022-10-17T02:57:47.451Z,16.95
2022-10-17T03:03:41.947Z,15.97
2022-10-17T03:06:09.089Z,16.10
2022-10-17T03:11:03.457Z,14.45
2022-10-17T03:13:30.692Z,16.13
2022-10-17T03:15:58.014Z,17.70
2022-10-17T03:18:25.372Z,15.85
2022-10-17T03:20:52.501Z,14.55
2022-10-17T03:23:19.751Z,14.85
2022-10-17T03:25:46.879Z,14.52
2022-10-17T03:28:14.217Z,16.33
2022-10-17T03:30:41.681Z,18.55
2022-10-17T03:33:09.180Z,24.00
2022-10-17T03:35:39.299Z,20.40
2022-10-17T03:38:06.478Z,21.17
2022-10-17T03:40:33.581Z,17.67
2022-10-17T03:43:00.674Z,17.30
2022-10-17T03:45:27.880Z,14.77
2022-10-17T03:47:55.018Z,14.50
2022-10-17T03:50:22.176Z,14.00
2022-10-17T03:52:49.882Z,15.87
2022-10-17T03:55:17.265Z,15.52
2022-10-17T03:57:47.354Z,14.88
2022-10-17T04:00:14.736Z,13.82
2022-10-17T04:02:41.956Z,16.98
2022-10-17T04:05:09.262Z,15.30
2022-10-17T04:07:37.617Z,15.55
2022-10-17T04:10:05.363Z,14.88
2022-10-17T04:12:32.602Z,17.08
2022-10-17T04:14:59.835Z,13.75
2022-10-17T04:17:26.976Z,15.10
2022-10-17T04:19:54.069Z,15.88
2022-10-17T04:22:21.186Z,14.43
2022-10-17T04:24:48.309Z,17.58
2022-10-17T04:27:15.541Z,18.25
2022-10-17T04:29:43.965Z,16.60
2022-10-17T04:32:11.204Z,15.80
2022-10-17T04:34:38.319Z,15.50
2022-10-17T04:37:05.434Z,16.38
2022-10-17T04:39:32.683Z,16.38
2022-10-17T04:41:59.789Z,14.90
2022-10-17T04:44:30.829Z,14.15
2022-10-17T04:46:57.958Z,15.75
2022-10-17T04:49:25.087Z,15.93
2022-10-17T04:51:52.232Z,14.88
2022-10-17T04:54:19.486Z,13.80
2022-10-17T04:56:47.231Z,13.00
2022-10-17T04:59:14.505Z,15.88
2022-10-17T05:01:41.658Z,17.02
2022-10-17T05:04:08.819Z,14.32
2022-10-17T05:06:37.697Z,16.33
2022-10-17T05:09:05.017Z,14.65
2022-10-17T05:11:32.209Z,15.20
2022-10-17T05:14:01.318Z,13.48
2022-10-17T05:16:29.262Z,15.02
2022-10-17T05:18:58.070Z,15.70
2022-10-17T05:21:26.570Z,14.10
2022-10-17T05:23:59.764Z,14.95
2022-10-17T05:26:27.037Z,16.67
2022-10-17T05:28:54.660Z,15.25
2022-10-17T05:31:21.899Z,14.13
2022-10-17T05:33:49.268Z,13.10
2022-10-17T05:36:16.548Z,17.30
2022-10-17T05:38:43.827Z,14.15
2022-10-17T05:41:11.244Z,16.40
2022-10-17T05:43:38.532Z,18.20
2022-10-17T05:46:06.639Z,14.45
2022-10-17T05:48:34.033Z,14.18
2022-10-17T05:51:02.430Z,16.02
2022-10-17T05:53:39.603Z,14.15
2022-10-17T05:56:08.011Z,13.17
2022-10-17T05:58:49.222Z,12.88
2022-10-17T06:01:17.631Z,15.85
2022-10-17T06:03:45.198Z,15.45
2022-10-17T06:06:16.868Z,14.73
2022-10-17T06:08:47.537Z,14.43
2022-10-17T06:11:20.181Z,16.10
2022-10-17T06:13:47.352Z,16.20
2022-10-17T06:16:14.719Z,15.95
2022-10-17T06:18:41.862Z,13.80
2022-10-17T06:21:11.723Z,14.33
2022-10-17T06:23:41.435Z,13.63
2022-10-17T06:26:16.972Z,16.23
2022-10-17T06:28:44.460Z,14.80
2022-10-17T06:31:13.341Z,15.98
2022-10-17T06:33:40.491Z,18.80
2022-10-17T06:36:11.083Z,15.73
2022-10-17T06:38:38.688Z,16.85
2022-10-17T06:41:13.264Z,16.80
2022-10-17T06:43:41.200Z,17.65
2022-10-17T06:46:08.312Z,14.13
2022-10-17T06:48:35.478Z,12.05
2022-10-17T06:51:03.041Z,14.77
2022-10-17T06:53:30.895Z,12.68
2022-10-17T07:44:31.803Z,14.38
2022-10-17T07:46:58.953Z,13.25
2022-10-17T07:49:26.027Z,14.00
2022-10-17T07:51:53.229Z,14.23
2022-10-17T07:54:20.325Z,15.55
2022-10-17T07:56:50.486Z,18.85
2022-10-17T07:59:39.353Z,16.35
2022-10-17T08:02:08.109Z,15.25
2022-10-17T08:12:48.842Z,16.08
2022-10-17T08:15:40.720Z,15.10
2022-10-17T19:19:24.101Z,34.35
2022-10-17T19:25:35.316Z,25.80
2022-10-17T19:28:03.168Z,28.10
2022-10-17T19:30:31.239Z,38.28
2022-10-17T19:32:59.824Z,34.97
2022-10-17T19:35:27.770Z,29.67
2022-10-17T19:37:55.737Z,46.40
2022-10-17T19:40:23.553Z,30.23
2022-10-17T19:42:52.303Z,28.58
2022-10-17T19:45:19.453Z,33.60
2022-10-17T19:47:46.695Z,30.83
2022-10-17T19:50:14.141Z,31.98
2022-10-17T20:11:52.289Z,38.55
2022-10-17T20:14:20.157Z,54.58
2022-10-17T20:16:52.490Z,44.80
2022-10-17T20:19:19.902Z,77.43
2022-10-17T20:21:50.619Z,46.85
2022-10-17T20:24:18.786Z,41.63
2022-10-17T20:26:50.443Z,57.83
2022-10-17T20:29:24.261Z,42.35
2022-10-17T20:31:51.870Z,44.43
2022-10-17T20:34:19.676Z,60.05
2022-10-17T20:36:49.282Z,59.85
2022-10-17T20:39:23.487Z,39.30
2022-10-17T20:41:50.780Z,45.15
2022-10-17T20:44:18.097Z,44.80
2022-10-17T20:47:00.600Z,70.78
2022-10-17T20:52:20.496Z,50.53
2022-10-17T20:54:47.796Z,52.58
2022-10-17T21:10:58.749Z,61.80
2022-10-17T21:13:25.852Z,42.08
2022-10-17T21:15:53.152Z,36.45
2022-10-17T21:18:20.546Z,37.40
2022-10-17T21:20:47.684Z,43.25
2022-10-17T21:23:14.827Z,57.07
2022-10-17T21:25:42.269Z,37.38
2022-10-17T21:28:11.581Z,48.28
2022-10-17T21:30:38.796Z,39.50
2022-10-17T21:33:05.944Z,33.88
2022-10-17T21:35:33.101Z,35.80
2022-10-17T21:38:25.094Z,33.45
2022-10-17T21:40:55.258Z,40.72
2022-10-17T21:43:24.968Z,43.22
2022-10-17T21:45:53.102Z,41.70
2022-10-17T21:48:27.425Z,38.10
2022-10-17T21:51:02.964Z,39.80
2022-10-17T21:53:35.318Z,33.20
2022-10-17T21:56:06.990Z,34.65
2022-10-17T21:58:36.342Z,39.80
2022-10-17T22:01:33.094Z,46.03
2022-10-17T22:04:01.980Z,36.58
2022-10-17T22:06:53.407Z,32.33
2022-10-17T22:09:43.772Z,32.22
2022-10-17T22:12:11.175Z,52.55
2022-10-17T22:14:38.484Z,51.57
2022-10-17T22:17:05.794Z,30.65
2022-10-17T22:19:33.276Z,30.17
2022-10-17T22:22:00.497Z,39.72
2022-10-17T22:24:30.803Z,36.08
2022-10-17T22:26:57.933Z,48.63
2022-10-17T22:29:25.038Z,31.13
2022-10-17T22:32:21.553Z,25.58
2022-10-17T22:35:06.072Z,30.42
2022-10-17T22:38:02.274Z,45.70
2022-10-17T22:40:29.356Z,36.10
2022-10-17T22:42:56.525Z,47.63
2022-10-17T22:45:23.964Z,38.45
2022-10-17T22:47:51.098Z,32.50
2022-10-17T22:50:18.667Z,29.63
2022-10-17T22:52:45.831Z,39.90
2022-10-17T22:55:13.083Z,32.10
2022-10-17T22:57:53.991Z,28.42
2022-10-17T23:00:23.578Z,34.10
2022-10-17T23:02:57.316Z,30.73
2022-10-17T23:05:30.171Z,27.47
2022-10-17T23:07:57.626Z,31.85
2022-10-17T23:10:24.876Z,43.28
2022-10-17T23:12:52.029Z,31.25
2022-10-17T23:15:19.257Z,25.77
2022-10-17T23:17:46.612Z,27.67
2022-10-17T23:20:13.778Z,34.53
2022-10-17T23:22:42.106Z,33.47
2022-10-17T23:25:09.454Z,42.70
2022-10-17T23:27:36.583Z,29.73
2022-10-17T23:30:04.976Z,24.27
2022-10-17T23:32:32.493Z,60.90
2022-10-17T23:38:29.666Z,57.30
2022-10-17T23:40:57.018Z,42.58
2022-10-17T23:43:27.238Z,42.40
2022-10-17T23:46:00.667Z,51.40
2022-10-17T23:48:28.238Z,34.58
2022-10-17T23:50:56.028Z,40.20
2022-10-17T23:53:23.870Z,44.47
2022-10-17T23:55:51.166Z,68.87
